sensor_id;sensor_type;location;lat;lon;timestamp;temperature;humidity
6281;DHT22;3173;48.204;11.612;2022-09-09T05:11:48;15.10;99.90
6281;DHT22;3173;48.204;11.612;2022-09-09T05:14:14;15.00;99.90
6281;DHT22;3173;48.204;11.612;2022-09-09T05:16:40;15.10;99.90
6281;DHT22;3173;48.204;11.612;2022-09-09T05:19:06;14.30;99.90
6281;DHT22;3173;48.204;11.612;2022-09-09T05:21:33;14.70;99.90
6281;DHT22;3173;48.204;11.612;2022-09-09T05:23:59;14.50;99.90
6281;DHT22;3173;48.204;11.612;2022-09-09T05:26:26;14.80;99.90
6281;DHT22;3173;48.204;11.612;2022-09-09T05:28:51;14.90;99.90
6281;DHT22;3173;48.204;11.612;2022-09-09T05:31:20;14.80;99.90
6281;DHT22;3173;48.204;11.612;2022-09-09T05:33:47;14.90;99.90
6281;DHT22;3173;48.204;11.612;2022-09-09T05:36:15;14.50;99.90
6281;DHT22;3173;48.204;11.612;2022-09-09T05:38:42;15.00;99.90
6281;DHT22;3173;48.204;11.612;2022-09-09T05:41:09;14.90;99.90
6281;DHT22;3173;48.204;11.612;2022-09-09T05:43:37;14.70;99.90
6281;DHT22;3173;48.204;11.612;2022-09-09T05:46:08;14.80;99.90
6281;DHT22;3173;48.204;11.612;2022-09-09T05:48:36;15.20;99.90
6281;DHT22;3173;48.204;11.612;2022-09-09T05:51:05;14.90;99.90
6281;DHT22;3173;48.204;11.612;2022-09-09T05:53:35;15.20;99.90
6281;DHT22;3173;48.204;11.612;2022-09-09T05:56:09;15.20;99.90
6281;DHT22;3173;48.204;11.612;2022-09-09T05:58:38;15.20;99.90
6281;DHT22;3173;48.204;11.612;2022-09-09T06:01:06;14.90;99.90
6281;DHT22;3173;48.204;11.612;2022-09-09T06:03:40;15.00;99.90
6281;DHT22;3173;48.204;11.612;2022-09-09T06:06:08;15.20;99.90
6281;DHT22;3173;48.204;11.612;2022-09-09T06:08:36;15.20;99.90
6281;DHT22;3173;48.204;11.612;2022-09-09T06:11:06;15.30;99.90
6281;DHT22;3173;48.204;11.612;2022-09-09T06:13:32;15.30;99.90
6281;DHT22;3173;48.204;11.612;2022-09-09T06:15:59;15.40;99.90
6281;DHT22;3173;48.204;11.612;2022-09-09T06:18:25;15.50;99.90
6281;DHT22;3173;48.204;11.612;2022-09-09T06:20:59;15.40;99.90
6281;DHT22;3173;48.204;11.612;2022-09-09T06:23:30;15.60;99.90
6281;DHT22;3173;48.204;11.612;2022-09-09T06:26:22;15.60;99.90
6281;DHT22;3173;48.204;11.612;2022-09-09T06:28:50;15.70;99.90
6281;DHT22;3173;48.204;11.612;2022-09-09T06:31:19;15.80;99.90
6281;DHT22;3173;48.204;11.612;2022-09-09T06:33:47;15.80;99.90
6281;DHT22;3173;48.204;11.612;2022-09-09T06:36:17;15.80;99.90
6281;DHT22;3173;48.204;11.612;2022-09-09T06:38:44;15.70;99.90
6281;DHT22;3173;48.204;11.612;2022-09-09T06:41:11;15.80;99.90
6281;DHT22;3173;48.204;11.612;2022-09-09T06:43:37;15.90;99.90
6281;DHT22;3173;48.204;11.612;2022-09-09T06:46:13;16.00;99.90
6281;DHT22;3173;48.204;11.612;2022-09-09T06:48:42;16.00;99.90
6281;DHT22;3173;48.204;11.612;2022-09-09T06:51:09;15.80;99.90
6281;DHT22;3173;48.204;11.612;2022-09-09T06:53:37;16.00;99.90
6281;DHT22;3173;48.204;11.612;2022-09-09T07:03:47;16.50;99.90
6281;DHT22;3173;48.204;11.612;2022-09-09T07:11:10;16.20;99.90
6281;DHT22;3173;48.204;11.612;2022-09-09T07:13:36;16.40;99.90
6281;DHT22;3173;48.204;11.612;2022-09-09T07:16:10;16.40;99.90
6281;DHT22;3173;48.204;11.612;2022-09-09T07:18:36;16.20;99.90
6281;DHT22;3173;48.204;11.612;2022-09-09T07:21:03;16.50;99.90
6281;DHT22;3173;48.204;11.612;2022-09-09T07:23:29;16.40;99.90
6281;DHT22;3173;48.204;11.612;2022-09-09T07:25:55;16.30;99.90
6281;DHT22;3173;48.204;11.612;2022-09-09T07:28:21;16.10;99.90
6281;DHT22;3173;48.204;11.612;2022-09-09T07:30:57;16.10;99.90
6281;DHT22;3173;48.204;11.612;2022-09-09T07:33:24;16.10;99.90
6281;DHT22;3173;48.204;11.612;2022-09-09T07:35:50;16.00;99.90
6281;DHT22;3173;48.204;11.612;2022-09-09T07:38:16;16.30;99.90
6281;DHT22;3173;48.204;11.612;2022-09-09T07:40:42;16.10;99.90
6281;DHT22;3173;48.204;11.612;2022-09-09T07:43:09;15.90;99.90
6281;DHT22;3173;48.204;11.612;2022-09-09T07:45:35;16.10;99.90
6281;DHT22;3173;48.204;11.612;2022-09-09T07:48:01;15.90;99.90
6281;DHT22;3173;48.204;11.612;2022-09-09T07:50:26;16.10;99.90
6281;DHT22;3173;48.204;11.612;2022-09-09T07:52:52;16.10;99.90
6281;DHT22;3173;48.204;11.612;2022-09-09T07:55:19;16.20;99.90
6281;DHT22;3173;48.204;11.612;2022-09-09T07:57:45;16.50;99.90
6281;DHT22;3173;48.204;11.612;2022-09-09T08:00:11;16.40;99.90
6281;DHT22;3173;48.204;11.612;2022-09-09T08:02:37;16.40;99.90
6281;DHT22;3173;48.204;11.612;2022-09-09T08:05:03;16.60;99.90
6281;DHT22;3173;48.204;11.612;2022-09-09T08:07:28;16.60;99.90
6281;DHT22;3173;48.204;11.612;2022-09-09T08:09:54;16.50;99.90
6281;DHT22;3173;48.204;11.612;2022-09-09T08:12:21;16.80;99.90
6281;DHT22;3173;48.204;11.612;2022-09-09T08:14:47;16.70;99.90
6281;DHT22;3173;48.204;11.612;2022-09-09T08:17:14;16.60;99.90
6281;DHT22;3173;48.204;11.612;2022-09-09T08:19:39;16.80;99.90
6281;DHT22;3173;48.204;11.612;2022-09-09T08:22:05;17.00;99.90
6281;DHT22;3173;48.204;11.612;2022-09-09T08:24:30;17.00;99.90
6281;DHT22;3173;48.204;11.612;2022-09-09T08:26:56;16.70;99.90
6281;DHT22;3173;48.204;11.612;2022-09-09T08:29:22;17.00;99.90
6281;DHT22;3173;48.204;11.612;2022-09-09T08:31:50;17.00;99.90
6281;DHT22;3173;48.204;11.612;2022-09-09T08:34:17;16.70;99.90
6281;DHT22;3173;48.204;11.612;2022-09-09T08:36:45;16.90;99.90
6281;DHT22;3173;48.204;11.612;2022-09-09T08:39:15;16.90;99.90
6281;DHT22;3173;48.204;11.612;2022-09-09T08:45:14;17.20;99.90
6281;DHT22;3173;48.204;11.612;2022-09-09T08:50:25;17.20;99.90
6281;DHT22;3173;48.204;11.612;2022-09-09T08:56:09;17.40;99.90
6281;DHT22;3173;48.204;11.612;2022-09-09T08:58:48;17.30;99.90
6281;DHT22;3173;48.204;11.612;2022-09-09T09:10:01;17.00;99.90
6281;DHT22;3173;48.204;11.612;2022-09-09T09:12:33;17.00;99.90
6281;DHT22;3173;48.204;11.612;2022-09-09T09:15:00;17.10;99.90
6281;DHT22;3173;48.204;11.612;2022-09-09T09:17:28;16.90;99.90
6281;DHT22;3173;48.204;11.612;2022-09-09T09:19:58;16.80;99.90
6281;DHT22;3173;48.204;11.612;2022-09-09T09:22:40;16.80;99.90
6281;DHT22;3173;48.204;11.612;2022-09-09T09:28:01;17.50;99.90
6281;DHT22;3173;48.204;11.612;2022-09-09T09:33:02;17.50;99.90
6281;DHT22;3173;48.204;11.612;2022-09-09T09:35:30;18.00;99.90
6281;DHT22;3173;48.204;11.612;2022-09-09T09:37:56;18.10;99.90
6281;DHT22;3173;48.204;11.612;2022-09-09T09:40:22;18.20;99.90
6281;DHT22;3173;48.204;11.612;2022-09-09T09:42:57;17.70;99.90
6281;DHT22;3173;48.204;11.612;2022-09-09T09:45:26;17.90;99.90
6281;DHT22;3173;48.204;11.612;2022-09-09T09:53:00;17.60;99.90
6281;DHT22;3173;48.204;11.612;2022-09-09T10:34:31;18.00;99.90
6281;DHT22;3173;48.204;11.612;2022-09-09T10:37:16;17.90;99.90
6281;DHT22;3173;48.204;11.612;2022-09-09T10:39:50;18.10;99.90
6281;DHT22;3173;48.204;11.612;2022-09-09T10:42:20;18.00;99.90
6281;DHT22;3173;48.204;11.612;2022-09-09T10:44:53;18.20;99.90
6281;DHT22;3173;48.204;11.612;2022-09-09T10:50:28;18.40;99.90
6281;DHT22;3173;48.204;11.612;2022-09-09T10:53:14;18.30;99.90
6281;DHT22;3173;48.204;11.612;2022-09-09T10:55:43;18.30;99.90
6281;DHT22;3173;48.204;11.612;2022-09-09T10:58:24;18.60;99.90
6281;DHT22;3173;48.204;11.612;2022-09-09T11:00:56;18.30;99.90
6281;DHT22;3173;48.204;11.612;2022-09-09T11:03:28;18.30;99.90
6281;DHT22;3173;48.204;11.612;2022-09-09T11:06:05;18.60;99.90
6281;DHT22;3173;48.204;11.612;2022-09-09T11:08:34;18.60;99.90
6281;DHT22;3173;48.204;11.612;2022-09-09T11:11:12;18.90;99.90
6281;DHT22;3173;48.204;11.612;2022-09-09T11:13:45;18.80;99.90
6281;DHT22;3173;48.204;11.612;2022-09-09T11:16:28;18.50;99.90
6281;DHT22;3173;48.204;11.612;2022-09-09T11:19:00;18.60;99.90
6281;DHT22;3173;48.204;11.612;2022-09-09T11:21:44;18.80;99.90
6281;DHT22;3173;48.204;11.612;2022-09-09T11:24:19;20.80;99.90
6281;DHT22;3173;48.204;11.612;2022-09-09T11:27:30;20.50;99.90
6281;DHT22;3173;48.204;11.612;2022-09-09T11:30:23;20.80;99.90
6281;DHT22;3173;48.204;11.612;2022-09-09T11:33:03;21.10;99.90
6281;DHT22;3173;48.204;11.612;2022-09-09T11:38:09;20.80;99.90
6281;DHT22;3173;48.204;11.612;2022-09-09T11:40:40;20.30;99.90
6281;DHT22;3173;48.204;11.612;2022-09-09T11:43:12;19.90;99.90
6281;DHT22;3173;48.204;11.612;2022-09-09T11:45:41;21.10;99.90
6281;DHT22;3173;48.204;11.612;2022-09-09T11:48:35;22.80;99.90
6281;DHT22;3173;48.204;11.612;2022-09-09T11:51:02;23.10;99.90
6281;DHT22;3173;48.204;11.612;2022-09-09T11:53:30;22.80;99.90
6281;DHT22;3173;48.204;11.612;2022-09-09T11:56:08;26.90;99.90
6281;DHT22;3173;48.204;11.612;2022-09-09T12:06:29;24.70;99.90
6281;DHT22;3173;48.204;11.612;2022-09-09T12:09:08;22.20;99.90
6281;DHT22;3173;48.204;11.612;2022-09-09T12:11:36;20.50;99.90
6281;DHT22;3173;48.204;11.612;2022-09-09T12:14:02;20.20;99.90
6281;DHT22;3173;48.204;11.612;2022-09-09T12:16:36;19.90;99.90
6281;DHT22;3173;48.204;11.612;2022-09-09T12:19:16;20.20;99.90
6281;DHT22;3173;48.204;11.612;2022-09-09T12:21:54;20.00;99.90
6281;DHT22;3173;48.204;11.612;2022-09-09T12:24:40;19.90;99.90
6281;DHT22;3173;48.204;11.612;2022-09-09T12:27:33;19.80;99.90
6281;DHT22;3173;48.204;11.612;2022-09-09T12:30:10;19.50;99.90
6281;DHT22;3173;48.204;11.612;2022-09-09T13:27:51;20.30;99.90
6281;DHT22;3173;48.204;11.612;2022-09-09T13:33:00;20.00;99.90
6281;DHT22;3173;48.204;11.612;2022-09-09T13:35:26;20.00;99.90
6281;DHT22;3173;48.204;11.612;2022-09-09T13:37:52;20.10;99.90
6281;DHT22;3173;48.204;11.612;2022-09-09T13:40:21;19.60;99.90
6281;DHT22;3173;48.204;11.612;2022-09-09T13:42:50;19.80;99.90
6281;DHT22;3173;48.204;11.612;2022-09-09T13:45:21;19.50;99.90
6281;DHT22;3173;48.204;11.612;2022-09-09T13:47:49;19.70;99.90
6281;DHT22;3173;48.204;11.612;2022-09-09T13:50:25;19.40;99.90
6281;DHT22;3173;48.204;11.612;2022-09-09T13:52:58;19.50;99.90
6281;DHT22;3173;48.204;11.612;2022-09-09T13:55:29;19.50;99.90
6281;DHT22;3173;48.204;11.612;2022-09-09T13:58:00;19.60;99.90
6281;DHT22;3173;48.204;11.612;2022-09-09T14:00:28;19.60;99.90
6281;DHT22;3173;48.204;11.612;2022-09-09T14:02:54;19.50;99.90
6281;DHT22;3173;48.204;11.612;2022-09-09T14:05:20;19.50;99.90
6281;DHT22;3173;48.204;11.612;2022-09-09T14:07:48;19.50;99.90
6281;DHT22;3173;48.204;11.612;2022-09-09T14:10:14;19.50;99.90
6281;DHT22;3173;48.204;11.612;2022-09-09T14:12:40;19.40;99.90
6281;DHT22;3173;48.204;11.612;2022-09-09T14:15:07;19.10;99.90
6281;DHT22;3173;48.204;11.612;2022-09-09T14:17:33;19.20;99.90
6281;DHT22;3173;48.204;11.612;2022-09-09T14:20:08;18.70;99.90
6281;DHT22;3173;48.204;11.612;2022-09-09T14:22:35;18.90;99.90
6281;DHT22;3173;48.204;11.612;2022-09-09T14:25:01;18.60;99.90
6281;DHT22;3173;48.204;11.612;2022-09-09T14:27:27;18.60;99.90
6281;DHT22;3173;48.204;11.612;2022-09-09T14:29:54;18.80;99.90
6281;DHT22;3173;48.204;11.612;2022-09-09T14:32:19;18.70;99.90
6281;DHT22;3173;48.204;11.612;2022-09-09T14:34:45;18.80;99.90
6281;DHT22;3173;48.204;11.612;2022-09-09T14:37:11;19.00;99.90
6281;DHT22;3173;48.204;11.612;2022-09-09T14:39:36;18.90;99.90
6281;DHT22;3173;48.204;11.612;2022-09-09T14:42:02;18.80;99.90
6281;DHT22;3173;48.204;11.612;2022-09-09T14:44:28;18.80;99.90
6281;DHT22;3173;48.204;11.612;2022-09-09T14:46:53;18.80;99.90
6281;DHT22;3173;48.204;11.612;2022-09-09T14:49:20;18.70;99.90
6281;DHT22;3173;48.204;11.612;2022-09-09T14:51:45;18.90;99.90
6281;DHT22;3173;48.204;11.612;2022-09-09T14:54:11;18.80;99.90
6281;DHT22;3173;48.204;11.612;2022-09-09T14:56:37;18.70;99.90
6281;DHT22;3173;48.204;11.612;2022-09-09T14:59:03;18.50;99.90
6281;DHT22;3173;48.204;11.612;2022-09-09T15:01:30;18.50;99.90
6281;DHT22;3173;48.204;11.612;2022-09-09T15:03:59;18.60;99.90
6281;DHT22;3173;48.204;11.612;2022-09-09T15:06:26;18.50;99.90
6281;DHT22;3173;48.204;11.612;2022-09-09T15:08:53;18.60;99.90
6281;DHT22;3173;48.204;11.612;2022-09-09T15:11:20;18.40;99.90
6281;DHT22;3173;48.204;11.612;2022-09-09T15:13:46;18.50;99.90
6281;DHT22;3173;48.204;11.612;2022-09-09T15:16:14;18.50;99.90
6281;DHT22;3173;48.204;11.612;2022-09-09T15:18:40;18.50;99.90
6281;DHT22;3173;48.204;11.612;2022-09-09T15:21:09;18.50;99.90
6281;DHT22;3173;48.204;11.612;2022-09-09T15:23:36;18.60;99.90
6281;DHT22;3173;48.204;11.612;2022-09-09T15:26:02;18.60;99.90
6281;DHT22;3173;48.204;11.612;2022-09-09T15:28:28;18.50;99.90
6281;DHT22;3173;48.204;11.612;2022-09-09T15:30:54;18.70;99.90
6281;DHT22;3173;48.204;11.612;2022-09-09T15:33:21;18.60;99.90
6281;DHT22;3173;48.204;11.612;2022-09-09T15:35:47;18.80;99.90
6281;DHT22;3173;48.204;11.612;2022-09-09T15:38:13;18.90;99.90
6281;DHT22;3173;48.204;11.612;2022-09-09T15:40:42;18.90;99.90
6281;DHT22;3173;48.204;11.612;2022-09-09T15:43:08;19.00;99.90
6281;DHT22;3173;48.204;11.612;2022-09-09T15:45:35;18.90;99.90
6281;DHT22;3173;48.204;11.612;2022-09-09T15:48:01;18.90;99.90
6281;DHT22;3173;48.204;11.612;2022-09-09T15:50:27;19.10;99.90
6281;DHT22;3173;48.204;11.612;2022-09-09T15:52:55;19.50;99.90
6281;DHT22;3173;48.204;11.612;2022-09-09T15:55:20;19.20;99.90
6281;DHT22;3173;48.204;11.612;2022-09-09T15:57:46;19.60;99.90
6281;DHT22;3173;48.204;11.612;2022-09-09T16:00:12;20.10;99.90
6281;DHT22;3173;48.204;11.612;2022-09-09T16:02:39;19.90;99.90
6281;DHT22;3173;48.204;11.612;2022-09-09T16:05:05;19.90;99.90
6281;DHT22;3173;48.204;11.612;2022-09-09T16:07:31;19.70;99.90
6281;DHT22;3173;48.204;11.612;2022-09-09T16:09:56;19.40;99.90
6281;DHT22;3173;48.204;11.612;2022-09-09T16:12:22;19.40;99.90
6281;DHT22;3173;48.204;11.612;2022-09-09T16:14:47;19.00;99.90
6281;DHT22;3173;48.204;11.612;2022-09-09T16:17:13;18.80;99.90
6281;DHT22;3173;48.204;11.612;2022-09-09T16:19:39;18.60;99.90
6281;DHT22;3173;48.204;11.612;2022-09-09T16:22:05;18.60;99.90
6281;DHT22;3173;48.204;11.612;2022-09-09T16:24:32;18.70;99.90
6281;DHT22;3173;48.204;11.612;2022-09-09T16:26:58;18.90;99.90
6281;DHT22;3173;48.204;11.612;2022-09-09T16:29:24;19.10;99.90
6281;DHT22;3173;48.204;11.612;2022-09-09T16:31:52;19.30;99.90
6281;DHT22;3173;48.204;11.612;2022-09-09T16:34:19;19.10;99.90
6281;DHT22;3173;48.204;11.612;2022-09-09T16:36:46;19.20;99.90
6281;DHT22;3173;48.204;11.612;2022-09-09T16:39:18;19.40;99.90
6281;DHT22;3173;48.204;11.612;2022-09-09T16:41:44;19.60;99.90
6281;DHT22;3173;48.204;11.612;2022-09-09T16:44:11;19.50;99.90
6281;DHT22;3173;48.204;11.612;2022-09-09T16:46:40;19.40;99.90
6281;DHT22;3173;48.204;11.612;2022-09-09T16:49:08;19.30;99.90
6281;DHT22;3173;48.204;11.612;2022-09-09T16:51:36;19.10;99.90
6281;DHT22;3173;48.204;11.612;2022-09-09T16:54:04;18.90;99.90
6281;DHT22;3173;48.204;11.612;2022-09-09T16:56:32;18.80;99.90
6281;DHT22;3173;48.204;11.612;2022-09-09T16:59:01;18.90;99.90
6281;DHT22;3173;48.204;11.612;2022-09-09T17:01:29;18.80;99.90
6281;DHT22;3173;48.204;11.612;2022-09-09T17:04:00;18.80;99.90
6281;DHT22;3173;48.204;11.612;2022-09-09T17:06:26;18.70;99.90
6281;DHT22;3173;48.204;11.612;2022-09-09T17:09:02;18.20;99.90
6281;DHT22;3173;48.204;11.612;2022-09-09T17:11:28;18.20;99.90
6281;DHT22;3173;48.204;11.612;2022-09-09T17:13:55;18.20;99.90
6281;DHT22;3173;48.204;11.612;2022-09-09T17:16:23;18.00;99.90
6281;DHT22;3173;48.204;11.612;2022-09-09T17:18:49;17.90;99.90
6281;DHT22;3173;48.204;11.612;2022-09-09T17:21:17;17.70;99.90
6281;DHT22;3173;48.204;11.612;2022-09-09T17:23:44;17.70;99.90
6281;DHT22;3173;48.204;11.612;2022-09-09T17:26:12;17.70;99.90
6281;DHT22;3173;48.204;11.612;2022-09-09T17:28:39;17.60;99.90
6281;DHT22;3173;48.204;11.612;2022-09-09T17:31:07;17.50;99.90
6281;DHT22;3173;48.204;11.612;2022-09-09T17:33:35;17.40;99.90
6281;DHT22;3173;48.204;11.612;2022-09-09T17:36:07;17.30;99.90
6281;DHT22;3173;48.204;11.612;2022-09-09T17:38:33;17.40;99.90
6281;DHT22;3173;48.204;11.612;2022-09-09T17:41:07;17.30;99.90
6281;DHT22;3173;48.204;11.612;2022-09-09T17:43:34;17.20;99.90
6281;DHT22;3173;48.204;11.612;2022-09-09T17:46:29;17.20;99.90
6281;DHT22;3173;48.204;11.612;2022-09-09T17:48:57;17.10;99.90
6281;DHT22;3173;48.204;11.612;2022-09-09T17:51:26;17.00;99.90
6281;DHT22;3173;48.204;11.612;2022-09-09T17:54:06;16.90;99.90
6281;DHT22;3173;48.204;11.612;2022-09-09T17:56:33;16.80;99.90
6281;DHT22;3173;48.204;11.612;2022-09-09T17:59:01;16.80;99.90
6281;DHT22;3173;48.204;11.612;2022-09-09T18:01:33;16.70;99.90
6281;DHT22;3173;48.204;11.612;2022-09-09T18:04:00;16.60;99.90
6281;DHT22;3173;48.204;11.612;2022-09-09T18:06:33;16.60;99.90
6281;DHT22;3173;48.204;11.612;2022-09-09T18:09:00;16.60;99.90
6281;DHT22;3173;48.204;11.612;2022-09-09T18:11:31;16.50;99.90
6281;DHT22;3173;48.204;11.612;2022-09-09T18:14:02;16.40;99.90
6281;DHT22;3173;48.204;11.612;2022-09-09T18:16:30;16.50;99.90
6281;DHT22;3173;48.204;11.612;2022-09-09T18:18:57;16.40;99.90
6281;DHT22;3173;48.204;11.612;2022-09-09T18:21:23;16.40;99.90
6281;DHT22;3173;48.204;11.612;2022-09-09T18:23:50;16.30;99.90
6281;DHT22;3173;48.204;11.612;2022-09-09T18:26:23;16.30;99.90
6281;DHT22;3173;48.204;11.612;2022-09-09T18:28:51;16.30;99.90
6281;DHT22;3173;48.204;11.612;2022-09-09T18:31:19;16.20;99.90
6281;DHT22;3173;48.204;11.612;2022-09-09T18:33:47;16.20;99.90
6281;DHT22;3173;48.204;11.612;2022-09-09T18:36:25;16.10;99.90
6281;DHT22;3173;48.204;11.612;2022-09-09T18:38:51;16.20;99.90
6281;DHT22;3173;48.204;11.612;2022-09-09T18:41:26;16.10;99.90
6281;DHT22;3173;48.204;11.612;2022-09-09T18:43:54;16.00;99.90
6281;DHT22;3173;48.204;11.612;2022-09-09T18:46:21;16.00;99.90
6281;DHT22;3173;48.204;11.612;2022-09-09T18:48:48;16.10;99.90
6281;DHT22;3173;48.204;11.612;2022-09-09T18:51:16;16.10;99.90
6281;DHT22;3173;48.204;11.612;2022-09-09T18:53:43;15.90;99.90
6281;DHT22;3173;48.204;11.612;2022-09-09T18:56:13;15.90;99.90
6281;DHT22;3173;48.204;11.612;2022-09-09T18:58:39;15.90;99.90
6281;DHT22;3173;48.204;11.612;2022-09-09T19:01:09;15.90;99.90
6281;DHT22;3173;48.204;11.612;2022-09-09T19:03:35;16.00;99.90
6281;DHT22;3173;48.204;11.612;2022-09-09T19:06:10;15.90;99.90
6281;DHT22;3173;48.204;11.612;2022-09-09T19:08:38;16.00;99.90
6281;DHT22;3173;48.204;11.612;2022-09-09T19:11:05;16.00;99.90
6281;DHT22;3173;48.204;11.612;2022-09-09T19:13:31;16.00;99.90
6281;DHT22;3173;48.204;11.612;2022-09-09T19:16:04;16.10;99.90
6281;DHT22;3173;48.204;11.612;2022-09-09T19:18:30;16.20;99.90
6281;DHT22;3173;48.204;11.612;2022-09-09T19:20:55;16.10;99.90
6281;DHT22;3173;48.204;11.612;2022-09-09T19:23:21;16.20;99.90
6281;DHT22;3173;48.204;11.612;2022-09-09T19:25:48;16.30;99.90
6281;DHT22;3173;48.204;11.612;2022-09-09T19:28:14;16.30;99.90
6281;DHT22;3173;48.204;11.612;2022-09-09T19:30:40;16.20;99.90
6281;DHT22;3173;48.204;11.612;2022-09-09T19:33:09;16.20;99.90
6281;DHT22;3173;48.204;11.612;2022-09-09T19:35:34;16.20;99.90
6281;DHT22;3173;48.204;11.612;2022-09-09T19:38:00;16.10;99.90
6281;DHT22;3173;48.204;11.612;2022-09-09T19:40:26;16.00;99.90
6281;DHT22;3173;48.204;11.612;2022-09-09T19:42:51;15.90;99.90
6281;DHT22;3173;48.204;11.612;2022-09-09T19:45:18;15.90;99.90
6281;DHT22;3173;48.204;11.612;2022-09-09T19:47:44;15.80;99.90
6281;DHT22;3173;48.204;11.612;2022-09-09T19:50:09;15.90;99.90
6281;DHT22;3173;48.204;11.612;2022-09-09T19:52:35;15.80;99.90
6281;DHT22;3173;48.204;11.612;2022-09-09T19:55:02;15.80;99.90
6281;DHT22;3173;48.204;11.612;2022-09-09T19:57:28;15.70;99.90
6281;DHT22;3173;48.204;11.612;2022-09-09T19:59:55;15.60;99.90
6281;DHT22;3173;48.204;11.612;2022-09-09T20:02:21;15.60;99.90
6281;DHT22;3173;48.204;11.612;2022-09-09T20:04:49;15.60;99.90
6281;DHT22;3173;48.204;11.612;2022-09-09T20:07:14;15.50;99.90
6281;DHT22;3173;48.204;11.612;2022-09-09T20:09:40;15.50;99.90
6281;DHT22;3173;48.204;11.612;2022-09-09T20:12:05;15.50;99.90
6281;DHT22;3173;48.204;11.612;2022-09-09T20:14:31;15.30;99.90
6281;DHT22;3173;48.204;11.612;2022-09-09T20:16:57;15.30;99.90
6281;DHT22;3173;48.204;11.612;2022-09-09T20:19:23;15.40;99.90
6281;DHT22;3173;48.204;11.612;2022-09-09T20:21:48;15.10;99.90
6281;DHT22;3173;48.204;11.612;2022-09-09T20:24:16;15.00;99.90
6281;DHT22;3173;48.204;11.612;2022-09-09T20:26:42;14.90;99.90
6281;DHT22;3173;48.204;11.612;2022-09-09T20:29:13;15.00;99.90
6281;DHT22;3173;48.204;11.612;2022-09-09T20:31:40;14.90;99.90
6281;DHT22;3173;48.204;11.612;2022-09-09T20:34:10;14.90;99.90
6281;DHT22;3173;48.204;11.612;2022-09-09T20:36:37;15.00;99.90
6281;DHT22;3173;48.204;11.612;2022-09-09T20:39:08;14.80;99.90
6281;DHT22;3173;48.204;11.612;2022-09-09T20:41:36;14.70;99.90
6281;DHT22;3173;48.204;11.612;2022-09-09T20:44:07;14.70;99.90
6281;DHT22;3173;48.204;11.612;2022-09-09T20:46:37;14.60;99.90
6281;DHT22;3173;48.204;11.612;2022-09-09T20:49:05;14.70;99.90
6281;DHT22;3173;48.204;11.612;2022-09-09T20:51:32;14.60;99.90
6281;DHT22;3173;48.204;11.612;2022-09-09T20:54:06;14.40;99.90
6281;DHT22;3173;48.204;11.612;2022-09-09T20:56:35;14.40;99.90
6281;DHT22;3173;48.204;11.612;2022-09-09T20:59:06;14.60;99.90
6281;DHT22;3173;48.204;11.612;2022-09-09T21:01:34;14.40;99.90
6281;DHT22;3173;48.204;11.612;2022-09-09T21:04:00;14.10;99.90
6281;DHT22;3173;48.204;11.612;2022-09-09T21:06:26;14.40;99.90
6281;DHT22;3173;48.204;11.612;2022-09-09T21:08:51;14.50;99.90
6281;DHT22;3173;48.204;11.612;2022-09-09T21:11:17;14.60;99.90
6281;DHT22;3173;48.204;11.612;2022-09-09T21:13:43;14.60;99.90
6281;DHT22;3173;48.204;11.612;2022-09-09T21:16:12;14.50;99.90
6281;DHT22;3173;48.204;11.612;2022-09-09T21:18:38;14.60;99.90
6281;DHT22;3173;48.204;11.612;2022-09-09T21:21:05;14.60;99.90
6281;DHT22;3173;48.204;11.612;2022-09-09T21:23:31;14.60;99.90
6281;DHT22;3173;48.204;11.612;2022-09-09T21:25:57;14.70;99.90
6281;DHT22;3173;48.204;11.612;2022-09-09T21:28:22;14.70;99.90
6281;DHT22;3173;48.204;11.612;2022-09-09T21:30:51;14.70;99.90
6281;DHT22;3173;48.204;11.612;2022-09-09T21:33:19;14.60;99.90
6281;DHT22;3173;48.204;11.612;2022-09-09T21:35:45;14.70;99.90
6281;DHT22;3173;48.204;11.612;2022-09-09T21:38:15;14.70;99.90
6281;DHT22;3173;48.204;11.612;2022-09-09T21:40:42;14.80;99.90
6281;DHT22;3173;48.204;11.612;2022-09-09T21:43:09;15.00;99.90
6281;DHT22;3173;48.204;11.612;2022-09-09T21:45:39;15.10;99.90
6281;DHT22;3173;48.204;11.612;2022-09-09T21:48:11;15.30;99.90
6281;DHT22;3173;48.204;11.612;2022-09-09T21:50:42;15.40;99.90
6281;DHT22;3173;48.204;11.612;2022-09-09T21:53:09;15.50;99.90
6281;DHT22;3173;48.204;11.612;2022-09-09T21:55:39;15.50;99.90
6281;DHT22;3173;48.204;11.612;2022-09-09T21:58:09;15.40;99.90
6281;DHT22;3173;48.204;11.612;2022-09-09T22:00:39;15.40;99.90
6281;DHT22;3173;48.204;11.612;2022-09-09T22:03:05;15.30;99.90
6281;DHT22;3173;48.204;11.612;2022-09-09T22:05:31;15.10;99.90
6281;DHT22;3173;48.204;11.612;2022-09-09T22:07:57;14.80;99.90
6281;DHT22;3173;48.204;11.612;2022-09-09T22:10:23;14.90;99.90
6281;DHT22;3173;48.204;11.612;2022-09-09T22:12:51;14.90;99.90
6281;DHT22;3173;48.204;11.612;2022-09-09T22:15:17;14.70;99.90
6281;DHT22;3173;48.204;11.612;2022-09-09T22:17:43;14.80;99.90
6281;DHT22;3173;48.204;11.612;2022-09-09T22:20:09;14.80;99.90
6281;DHT22;3173;48.204;11.612;2022-09-09T22:22:36;14.70;99.90
6281;DHT22;3173;48.204;11.612;2022-09-09T22:25:02;14.70;99.90
6281;DHT22;3173;48.204;11.612;2022-09-09T22:27:28;14.70;99.90
6281;DHT22;3173;48.204;11.612;2022-09-09T22:29:54;14.60;99.90
6281;DHT22;3173;48.204;11.612;2022-09-09T22:32:19;14.60;99.90
6281;DHT22;3173;48.204;11.612;2022-09-09T22:34:45;14.50;99.90
6281;DHT22;3173;48.204;11.612;2022-09-09T22:37:11;14.60;99.90
6281;DHT22;3173;48.204;11.612;2022-09-09T22:39:37;14.40;99.90
6281;DHT22;3173;48.204;11.612;2022-09-09T22:42:02;14.60;99.90
6281;DHT22;3173;48.204;11.612;2022-09-09T22:44:30;14.60;99.90
6281;DHT22;3173;48.204;11.612;2022-09-09T22:46:56;14.40;99.90
6281;DHT22;3173;48.204;11.612;2022-09-09T22:49:22;14.40;99.90
6281;DHT22;3173;48.204;11.612;2022-09-09T22:51:48;14.40;99.90
6281;DHT22;3173;48.204;11.612;2022-09-09T22:54:14;14.90;99.90
6281;DHT22;3173;48.204;11.612;2022-09-09T22:56:49;14.30;99.90
6281;DHT22;3173;48.204;11.612;2022-09-09T22:59:15;14.30;99.90
6281;DHT22;3173;48.204;11.612;2022-09-09T23:01:40;14.30;99.90
6281;DHT22;3173;48.204;11.612;2022-09-09T23:04:06;14.30;99.90
6281;DHT22;3173;48.204;11.612;2022-09-09T23:06:32;14.30;99.90
6281;DHT22;3173;48.204;11.612;2022-09-09T23:08:59;14.20;99.90
6281;DHT22;3173;48.204;11.612;2022-09-09T23:11:29;14.30;99.90
6281;DHT22;3173;48.204;11.612;2022-09-09T23:13:56;14.10;99.90
6281;DHT22;3173;48.204;11.612;2022-09-09T23:16:25;14.10;99.90
6281;DHT22;3173;48.204;11.612;2022-09-09T23:18:52;14.10;99.90
6281;DHT22;3173;48.204;11.612;2022-09-09T23:21:20;14.00;99.90
6281;DHT22;3173;48.204;11.612;2022-09-09T23:23:50;13.80;99.90
6281;DHT22;3173;48.204;11.612;2022-09-09T23:26:16;13.90;99.90
6281;DHT22;3173;48.204;11.612;2022-09-09T23:28:46;13.80;99.90
6281;DHT22;3173;48.204;11.612;2022-09-09T23:31:15;13.90;99.90
6281;DHT22;3173;48.204;11.612;2022-09-09T23:33:42;13.80;99.90
6281;DHT22;3173;48.204;11.612;2022-09-09T23:36:14;13.70;99.90